sensor_id;sensor_type;location;lat;lon;timestamp;temperature;humidity
65559;DHT22;52203;51.998;5.140;2023-07-20T00:01:29;10.37;118.99
65559;DHT22;52203;51.998;5.140;2023-07-20T00:03:55;10.35;118.99
65559;DHT22;52203;51.998;5.140;2023-07-20T00:06:23;10.33;118.99
65559;DHT22;52203;51.998;5.140;2023-07-20T00:08:50;10.33;118.99
65559;DHT22;52203;51.998;5.140;2023-07-20T00:11:16;10.30;118.99
65559;DHT22;52203;51.998;5.140;2023-07-20T00:13:42;10.26;118.99
65559;DHT22;52203;51.998;5.140;2023-07-20T00:16:07;10.25;118.99
65559;DHT22;52203;51.998;5.140;2023-07-20T00:18:33;10.20;118.99
65559;DHT22;52203;51.998;5.140;2023-07-20T00:20:58;10.16;118.99
65559;DHT22;52203;51.998;5.140;2023-07-20T00:23:27;10.12;118.99
65559;DHT22;52203;51.998;5.140;2023-07-20T00:25:53;10.07;118.99
65559;DHT22;52203;51.998;5.140;2023-07-20T00:28:19;10.03;118.99
65559;DHT22;52203;51.998;5.140;2023-07-20T00:30:44;9.99;118.99
65559;DHT22;52203;51.998;5.140;2023-07-20T00:33:10;9.97;118.99
65559;DHT22;52203;51.998;5.140;2023-07-20T00:35:37;9.95;118.99
65559;DHT22;52203;51.998;5.140;2023-07-20T00:38:03;9.99;118.99
65559;DHT22;52203;51.998;5.140;2023-07-20T00:40:34;9.95;118.99
65559;DHT22;52203;51.998;5.140;2023-07-20T00:43:00;9.91;118.99
65559;DHT22;52203;51.998;5.140;2023-07-20T00:45:26;9.82;118.99
65559;DHT22;52203;51.998;5.140;2023-07-20T00:47:52;9.75;118.99
65559;DHT22;52203;51.998;5.140;2023-07-20T00:50:17;9.70;118.99
65559;DHT22;52203;51.998;5.140;2023-07-20T00:52:43;9.63;118.99
65559;DHT22;52203;51.998;5.140;2023-07-20T00:55:09;9.59;118.99
65559;DHT22;52203;51.998;5.140;2023-07-20T00:57:35;9.53;118.99
65559;DHT22;52203;51.998;5.140;2023-07-20T01:00:01;9.46;118.99
65559;DHT22;52203;51.998;5.140;2023-07-20T01:02:27;9.41;118.99
65559;DHT22;52203;51.998;5.140;2023-07-20T01:04:52;9.37;118.99
65559;DHT22;52203;51.998;5.140;2023-07-20T01:07:40;9.29;118.99
65559;DHT22;52203;51.998;5.140;2023-07-20T01:12:43;9.20;118.99
65559;DHT22;52203;51.998;5.140;2023-07-20T01:15:09;9.12;118.99
65559;DHT22;52203;51.998;5.140;2023-07-20T01:17:35;9.09;118.99
65559;DHT22;52203;51.998;5.140;2023-07-20T01:20:01;9.06;118.99
65559;DHT22;52203;51.998;5.140;2023-07-20T01:23:00;8.98;118.99
65559;DHT22;52203;51.998;5.140;2023-07-20T01:30:52;8.78;118.99
65559;DHT22;52203;51.998;5.140;2023-07-20T01:33:21;8.74;118.99
65559;DHT22;52203;51.998;5.140;2023-07-20T01:35:56;8.63;118.99
65559;DHT22;52203;51.998;5.140;2023-07-20T01:38:23;8.64;118.99
65559;DHT22;52203;51.998;5.140;2023-07-20T01:40:50;8.60;118.99
65559;DHT22;52203;51.998;5.140;2023-07-20T01:43:16;8.53;118.99
65559;DHT22;52203;51.998;5.140;2023-07-20T01:45:41;8.47;118.99
65559;DHT22;52203;51.998;5.140;2023-07-20T01:48:07;8.47;118.99
65559;DHT22;52203;51.998;5.140;2023-07-20T01:50:32;8.38;118.99
65559;DHT22;52203;51.998;5.140;2023-07-20T01:53:00;8.37;118.99
65559;DHT22;52203;51.998;5.140;2023-07-20T01:55:25;8.29;118.99
65559;DHT22;52203;51.998;5.140;2023-07-20T01:57:51;8.31;118.99
65559;DHT22;52203;51.998;5.140;2023-07-20T02:00:17;8.31;118.99
65559;DHT22;52203;51.998;5.140;2023-07-20T02:02:44;8.23;118.99
65559;DHT22;52203;51.998;5.140;2023-07-20T02:05:10;8.19;118.99
65559;DHT22;52203;51.998;5.140;2023-07-20T02:07:35;8.12;118.99
65559;DHT22;52203;51.998;5.140;2023-07-20T02:10:01;8.11;118.99
65559;DHT22;52203;51.998;5.140;2023-07-20T02:12:26;8.09;118.99
65559;DHT22;52203;51.998;5.140;2023-07-20T02:14:52;8.07;118.99
65559;DHT22;52203;51.998;5.140;2023-07-20T02:17:18;8.05;118.99
65559;DHT22;52203;51.998;5.140;2023-07-20T02:19:44;8.03;118.99
65559;DHT22;52203;51.998;5.140;2023-07-20T02:22:09;7.98;118.99
65559;DHT22;52203;51.998;5.140;2023-07-20T02:24:35;7.93;118.99
65559;DHT22;52203;51.998;5.140;2023-07-20T02:27:00;7.92;118.99
65559;DHT22;52203;51.998;5.140;2023-07-20T02:29:26;7.89;118.99
65559;DHT22;52203;51.998;5.140;2023-07-20T02:31:51;7.89;118.99
65559;DHT22;52203;51.998;5.140;2023-07-20T02:34:17;7.86;118.99
65559;DHT22;52203;51.998;5.140;2023-07-20T02:36:42;7.83;118.99
65559;DHT22;52203;51.998;5.140;2023-07-20T02:39:08;7.84;118.99
65559;DHT22;52203;51.998;5.140;2023-07-20T02:41:34;7.79;118.99
65559;DHT22;52203;51.998;5.140;2023-07-20T02:44:00;7.77;118.99
65559;DHT22;52203;51.998;5.140;2023-07-20T02:46:26;7.79;118.99
65559;DHT22;52203;51.998;5.140;2023-07-20T02:48:52;7.76;118.99
65559;DHT22;52203;51.998;5.140;2023-07-20T02:51:17;7.74;118.99
65559;DHT22;52203;51.998;5.140;2023-07-20T02:53:43;7.77;118.99
65559;DHT22;52203;51.998;5.140;2023-07-20T02:56:08;7.73;118.99
65559;DHT22;52203;51.998;5.140;2023-07-20T02:58:34;7.70;118.99
65559;DHT22;52203;51.998;5.140;2023-07-20T03:01:03;7.68;118.99
65559;DHT22;52203;51.998;5.140;2023-07-20T03:03:28;7.65;118.99
65559;DHT22;52203;51.998;5.140;2023-07-20T03:05:54;7.64;118.99
65559;DHT22;52203;51.998;5.140;2023-07-20T03:08:21;7.61;118.99
65559;DHT22;52203;51.998;5.140;2023-07-20T03:10:47;7.61;118.99
65559;DHT22;52203;51.998;5.140;2023-07-20T03:13:12;7.65;118.99
65559;DHT22;52203;51.998;5.140;2023-07-20T03:15:39;7.65;118.99
65559;DHT22;52203;51.998;5.140;2023-07-20T03:18:05;7.62;118.99
65559;DHT22;52203;51.998;5.140;2023-07-20T03:20:31;7.60;118.99
65559;DHT22;52203;51.998;5.140;2023-07-20T03:22:56;7.56;118.99
65559;DHT22;52203;51.998;5.140;2023-07-20T03:25:22;7.57;118.99
65559;DHT22;52203;51.998;5.140;2023-07-20T03:27:49;7.56;118.99
65559;DHT22;52203;51.998;5.140;2023-07-20T03:30:15;7.55;118.99
65559;DHT22;52203;51.998;5.140;2023-07-20T03:32:41;7.52;118.99
65559;DHT22;52203;51.998;5.140;2023-07-20T03:35:06;7.49;118.99
65559;DHT22;52203;51.998;5.140;2023-07-20T03:37:32;7.48;118.99
65559;DHT22;52203;51.998;5.140;2023-07-20T03:40:00;7.48;118.99
65559;DHT22;52203;51.998;5.140;2023-07-20T03:42:25;7.48;118.99
65559;DHT22;52203;51.998;5.140;2023-07-20T03:44:51;7.50;118.99
65559;DHT22;52203;51.998;5.140;2023-07-20T03:47:16;7.47;118.99
65559;DHT22;52203;51.998;5.140;2023-07-20T03:49:42;7.47;118.99
65559;DHT22;52203;51.998;5.140;2023-07-20T03:52:08;7.48;118.99
65559;DHT22;52203;51.998;5.140;2023-07-20T03:54:33;7.45;118.99
65559;DHT22;52203;51.998;5.140;2023-07-20T03:56:59;7.47;118.99
65559;DHT22;52203;51.998;5.140;2023-07-20T03:59:26;7.48;118.99
65559;DHT22;52203;51.998;5.140;2023-07-20T04:01:51;7.52;118.99
65559;DHT22;52203;51.998;5.140;2023-07-20T04:04:17;7.53;118.99
65559;DHT22;52203;51.998;5.140;2023-07-20T04:06:42;7.59;118.99
65559;DHT22;52203;51.998;5.140;2023-07-20T04:09:11;7.64;118.99
65559;DHT22;52203;51.998;5.140;2023-07-20T04:11:38;7.72;118.99
65559;DHT22;52203;51.998;5.140;2023-07-20T04:14:03;7.79;118.99
65559;DHT22;52203;51.998;5.140;2023-07-20T04:16:29;7.89;118.99
65559;DHT22;52203;51.998;5.140;2023-07-20T04:18:55;8.09;118.99
65559;DHT22;52203;51.998;5.140;2023-07-20T04:21:21;8.19;118.99
65559;DHT22;52203;51.998;5.140;2023-07-20T04:23:47;8.24;118.99
65559;DHT22;52203;51.998;5.140;2023-07-20T04:26:12;8.29;118.99
65559;DHT22;52203;51.998;5.140;2023-07-20T04:28:40;8.35;118.99
65559;DHT22;52203;51.998;5.140;2023-07-20T04:31:14;8.39;118.99
65559;DHT22;52203;51.998;5.140;2023-07-20T04:33:40;8.44;118.99
65559;DHT22;52203;51.998;5.140;2023-07-20T04:36:06;8.50;118.99
65559;DHT22;52203;51.998;5.140;2023-07-20T04:38:32;8.56;118.99
65559;DHT22;52203;51.998;5.140;2023-07-20T04:40:58;8.65;118.99
65559;DHT22;52203;51.998;5.140;2023-07-20T04:43:24;8.72;118.99
65559;DHT22;52203;51.998;5.140;2023-07-20T04:45:49;8.82;118.99
65559;DHT22;52203;51.998;5.140;2023-07-20T04:48:16;8.89;118.99
65559;DHT22;52203;51.998;5.140;2023-07-20T04:50:44;9.02;118.99
65559;DHT22;52203;51.998;5.140;2023-07-20T04:53:13;9.09;118.99
65559;DHT22;52203;51.998;5.140;2023-07-20T04:55:39;9.14;118.99
65559;DHT22;52203;51.998;5.140;2023-07-20T04:58:05;9.20;118.99
65559;DHT22;52203;51.998;5.140;2023-07-20T05:00:34;9.35;118.99
65559;DHT22;52203;51.998;5.140;2023-07-20T05:03:00;9.59;118.99
65559;DHT22;52203;51.998;5.140;2023-07-20T05:05:25;9.69;118.99
65559;DHT22;52203;51.998;5.140;2023-07-20T05:07:51;10.10;118.99
65559;DHT22;52203;51.998;5.140;2023-07-20T05:10:17;10.30;118.99
65559;DHT22;52203;51.998;5.140;2023-07-20T05:12:42;10.29;118.99
65559;DHT22;52203;51.998;5.140;2023-07-20T05:15:08;10.57;118.99
65559;DHT22;52203;51.998;5.140;2023-07-20T05:17:34;10.69;118.99
65559;DHT22;52203;51.998;5.140;2023-07-20T05:20:00;11.08;118.99
65559;DHT22;52203;51.998;5.140;2023-07-20T05:22:25;11.38;118.99
65559;DHT22;52203;51.998;5.140;2023-07-20T05:24:51;11.74;118.99
65559;DHT22;52203;51.998;5.140;2023-07-20T05:27:16;12.04;118.99
65559;DHT22;52203;51.998;5.140;2023-07-20T05:29:45;12.17;118.99
65559;DHT22;52203;51.998;5.140;2023-07-20T05:32:12;12.33;118.99
65559;DHT22;52203;51.998;5.140;2023-07-20T05:34:37;12.85;118.99
65559;DHT22;52203;51.998;5.140;2023-07-20T05:37:03;13.22;118.99
65559;DHT22;52203;51.998;5.140;2023-07-20T05:39:28;13.56;118.99
65559;DHT22;52203;51.998;5.140;2023-07-20T05:41:54;13.79;118.99
65559;DHT22;52203;51.998;5.140;2023-07-20T05:44:19;14.19;118.99
65559;DHT22;52203;51.998;5.140;2023-07-20T05:46:45;14.48;118.99
65559;DHT22;52203;51.998;5.140;2023-07-20T05:49:11;14.59;118.99
65559;DHT22;52203;51.998;5.140;2023-07-20T05:51:37;14.91;118.99
65559;DHT22;52203;51.998;5.140;2023-07-20T05:54:02;15.26;118.99
65559;DHT22;52203;51.998;5.140;2023-07-20T05:56:28;15.37;118.99
65559;DHT22;52203;51.998;5.140;2023-07-20T05:58:53;15.92;118.99
65559;DHT22;52203;51.998;5.140;2023-07-20T06:01:19;15.96;118.99
65559;DHT22;52203;51.998;5.140;2023-07-20T06:03:45;16.17;118.99
65559;DHT22;52203;51.998;5.140;2023-07-20T06:06:10;16.36;118.99
65559;DHT22;52203;51.998;5.140;2023-07-20T06:08:37;16.35;118.99
65559;DHT22;52203;51.998;5.140;2023-07-20T06:11:03;16.42;118.99
65559;DHT22;52203;51.998;5.140;2023-07-20T06:13:29;16.50;118.99
65559;DHT22;52203;51.998;5.140;2023-07-20T06:15:55;16.67;118.99
65559;DHT22;52203;51.998;5.140;2023-07-20T06:18:23;16.98;118.99
65559;DHT22;52203;51.998;5.140;2023-07-20T06:20:50;17.01;118.99
65559;DHT22;52203;51.998;5.140;2023-07-20T06:23:16;16.25;118.99
65559;DHT22;52203;51.998;5.140;2023-07-20T06:25:42;15.97;118.99
65559;DHT22;52203;51.998;5.140;2023-07-20T06:28:07;16.15;118.99
65559;DHT22;52203;51.998;5.140;2023-07-20T06:30:34;16.18;118.99
65559;DHT22;52203;51.998;5.140;2023-07-20T06:33:00;16.87;118.99
65559;DHT22;52203;51.998;5.140;2023-07-20T06:35:26;17.31;118.99
65559;DHT22;52203;51.998;5.140;2023-07-20T06:37:51;17.68;118.99
65559;DHT22;52203;51.998;5.140;2023-07-20T06:40:17;18.00;118.99
65559;DHT22;52203;51.998;5.140;2023-07-20T06:42:43;18.54;118.99
65559;DHT22;52203;51.998;5.140;2023-07-20T06:45:09;18.48;118.99
65559;DHT22;52203;51.998;5.140;2023-07-20T06:47:37;18.86;118.99
65559;DHT22;52203;51.998;5.140;2023-07-20T06:50:07;19.11;118.99
65559;DHT22;52203;51.998;5.140;2023-07-20T06:52:36;19.50;118.99
65559;DHT22;52203;51.998;5.140;2023-07-20T06:55:03;19.86;118.99
65559;DHT22;52203;51.998;5.140;2023-07-20T06:57:28;20.22;118.99
65559;DHT22;52203;51.998;5.140;2023-07-20T06:59:54;20.32;118.99
65559;DHT22;52203;51.998;5.140;2023-07-20T07:02:19;20.46;118.99
65559;DHT22;52203;51.998;5.140;2023-07-20T07:04:45;19.98;118.99
65559;DHT22;52203;51.998;5.140;2023-07-20T07:07:14;18.67;118.99
65559;DHT22;52203;51.998;5.140;2023-07-20T07:09:40;18.24;118.99
65559;DHT22;52203;51.998;5.140;2023-07-20T07:12:06;18.20;118.99
65559;DHT22;52203;51.998;5.140;2023-07-20T07:14:31;17.79;118.99
65559;DHT22;52203;51.998;5.140;2023-07-20T07:16:57;17.14;118.99
65559;DHT22;52203;51.998;5.140;2023-07-20T07:19:23;16.35;118.99
65559;DHT22;52203;51.998;5.140;2023-07-20T07:21:48;15.86;118.99
65559;DHT22;52203;51.998;5.140;2023-07-20T07:24:14;15.26;118.99
65559;DHT22;52203;51.998;5.140;2023-07-20T07:26:39;0.00;118.99
65559;DHT22;52203;51.998;5.140;2023-07-20T07:29:08;14.45;118.99
65559;DHT22;52203;51.998;5.140;2023-07-20T07:31:34;14.49;118.99
65559;DHT22;52203;51.998;5.140;2023-07-20T07:34:01;15.00;118.99
65559;DHT22;52203;51.998;5.140;2023-07-20T07:36:27;15.47;118.99
65559;DHT22;52203;51.998;5.140;2023-07-20T07:38:53;16.02;118.99
65559;DHT22;52203;51.998;5.140;2023-07-20T07:41:18;16.52;118.99
65559;DHT22;52203;51.998;5.140;2023-07-20T07:43:44;16.99;118.99
65559;DHT22;52203;51.998;5.140;2023-07-20T07:46:09;17.29;118.99
65559;DHT22;52203;51.998;5.140;2023-07-20T07:48:35;17.46;118.99
65559;DHT22;52203;51.998;5.140;2023-07-20T07:51:00;17.52;118.99
65559;DHT22;52203;51.998;5.140;2023-07-20T07:53:26;17.73;118.99
65559;DHT22;52203;51.998;5.140;2023-07-20T07:55:52;17.73;118.99
65559;DHT22;52203;51.998;5.140;2023-07-20T07:58:18;17.80;118.99
65559;DHT22;52203;51.998;5.140;2023-07-20T08:00:43;17.92;118.99
65559;DHT22;52203;51.998;5.140;2023-07-20T08:03:10;17.90;118.99
65559;DHT22;52203;51.998;5.140;2023-07-20T08:05:35;17.51;118.99
65559;DHT22;52203;51.998;5.140;2023-07-20T08:08:02;17.09;118.99
65559;DHT22;52203;51.998;5.140;2023-07-20T08:10:29;17.01;118.99
65559;DHT22;52203;51.998;5.140;2023-07-20T08:12:55;16.95;118.99
65559;DHT22;52203;51.998;5.140;2023-07-20T08:15:20;16.99;118.99
65559;DHT22;52203;51.998;5.140;2023-07-20T08:17:46;17.09;118.99
65559;DHT22;52203;51.998;5.140;2023-07-20T08:20:15;17.29;118.99
65559;DHT22;52203;51.998;5.140;2023-07-20T08:22:42;17.76;118.99
65559;DHT22;52203;51.998;5.140;2023-07-20T08:25:08;17.91;118.99
65559;DHT22;52203;51.998;5.140;2023-07-20T08:27:35;18.23;118.99
65559;DHT22;52203;51.998;5.140;2023-07-20T08:30:00;18.26;118.99
65559;DHT22;52203;51.998;5.140;2023-07-20T08:32:26;18.33;118.99
65559;DHT22;52203;51.998;5.140;2023-07-20T08:34:52;18.49;118.99
65559;DHT22;52203;51.998;5.140;2023-07-20T08:37:17;0.00;118.99
65559;DHT22;52203;51.998;5.140;2023-07-20T08:39:43;18.85;118.99
65559;DHT22;52203;51.998;5.140;2023-07-20T08:42:09;18.83;118.99
65559;DHT22;52203;51.998;5.140;2023-07-20T08:44:38;18.71;118.99
65559;DHT22;52203;51.998;5.140;2023-07-20T08:47:04;18.72;118.99
65559;DHT22;52203;51.998;5.140;2023-07-20T08:49:31;18.69;118.99
65559;DHT22;52203;51.998;5.140;2023-07-20T08:51:58;18.74;118.99
65559;DHT22;52203;51.998;5.140;2023-07-20T08:54:30;18.95;118.99
65559;DHT22;52203;51.998;5.140;2023-07-20T08:56:58;18.99;118.99
65559;DHT22;52203;51.998;5.140;2023-07-20T08:59:28;18.89;118.99
65559;DHT22;52203;51.998;5.140;2023-07-20T09:01:55;19.03;118.99
65559;DHT22;52203;51.998;5.140;2023-07-20T09:04:22;19.18;118.99
65559;DHT22;52203;51.998;5.140;2023-07-20T09:06:49;19.81;118.99
65559;DHT22;52203;51.998;5.140;2023-07-20T09:09:14;22.34;118.99
65559;DHT22;52203;51.998;5.140;2023-07-20T09:11:40;19.66;118.99
65559;DHT22;52203;51.998;5.140;2023-07-20T09:14:07;19.58;118.99
65559;DHT22;52203;51.998;5.140;2023-07-20T09:16:46;19.07;118.99
65559;DHT22;52203;51.998;5.140;2023-07-20T09:19:15;20.30;118.99
65559;DHT22;52203;51.998;5.140;2023-07-20T09:21:40;18.49;118.99
65559;DHT22;52203;51.998;5.140;2023-07-20T09:24:06;18.36;118.99
65559;DHT22;52203;51.998;5.140;2023-07-20T09:26:40;19.28;118.99
65559;DHT22;52203;51.998;5.140;2023-07-20T09:29:07;19.21;118.99
65559;DHT22;52203;51.998;5.140;2023-07-20T09:31:34;19.39;118.99
65559;DHT22;52203;51.998;5.140;2023-07-20T09:34:00;19.53;118.99
65559;DHT22;52203;51.998;5.140;2023-07-20T09:36:28;19.35;118.99
65559;DHT22;52203;51.998;5.140;2023-07-20T09:38:54;19.62;118.99
65559;DHT22;52203;51.998;5.140;2023-07-20T09:41:21;19.79;118.99
65559;DHT22;52203;51.998;5.140;2023-07-20T09:43:46;20.02;118.99
65559;DHT22;52203;51.998;5.140;2023-07-20T09:46:12;20.41;118.99
65559;DHT22;52203;51.998;5.140;2023-07-20T09:48:39;20.56;118.99
65559;DHT22;52203;51.998;5.140;2023-07-20T09:51:05;20.79;118.99
65559;DHT22;52203;51.998;5.140;2023-07-20T09:53:33;20.70;118.99
65559;DHT22;52203;51.998;5.140;2023-07-20T09:56:00;20.77;118.99
65559;DHT22;52203;51.998;5.140;2023-07-20T09:58:26;21.00;118.99
65559;DHT22;52203;51.998;5.140;2023-07-20T10:00:56;21.08;118.99
65559;DHT22;52203;51.998;5.140;2023-07-20T10:03:28;21.06;118.99
65559;DHT22;52203;51.998;5.140;2023-07-20T10:06:01;20.81;118.99
65559;DHT22;52203;51.998;5.140;2023-07-20T10:08:29;20.61;118.99
65559;DHT22;52203;51.998;5.140;2023-07-20T10:10:59;20.36;118.99
65559;DHT22;52203;51.998;5.140;2023-07-20T10:13:27;20.18;118.99
65559;DHT22;52203;51.998;5.140;2023-07-20T10:16:07;19.90;118.99
65559;DHT22;52203;51.998;5.140;2023-07-20T10:21:42;19.30;118.99
65559;DHT22;52203;51.998;5.140;2023-07-20T10:24:13;19.07;118.99
65559;DHT22;52203;51.998;5.140;2023-07-20T10:26:39;17.49;118.99
65559;DHT22;52203;51.998;5.140;2023-07-20T10:29:04;17.41;118.99
65559;DHT22;52203;51.998;5.140;2023-07-20T10:31:31;17.45;118.99
65559;DHT22;52203;51.998;5.140;2023-07-20T10:33:57;17.64;118.99
65559;DHT22;52203;51.998;5.140;2023-07-20T10:36:27;17.99;118.99
65559;DHT22;52203;51.998;5.140;2023-07-20T10:38:54;18.33;118.99
65559;DHT22;52203;51.998;5.140;2023-07-20T10:41:27;17.89;118.99
65559;DHT22;52203;51.998;5.140;2023-07-20T10:44:01;18.21;118.99
65559;DHT22;52203;51.998;5.140;2023-07-20T10:49:10;17.93;118.99
65559;DHT22;52203;51.998;5.140;2023-07-20T10:51:57;17.91;118.99
65559;DHT22;52203;51.998;5.140;2023-07-20T10:56:49;17.87;118.99
65559;DHT22;52203;51.998;5.140;2023-07-20T11:01:44;17.67;118.99
65559;DHT22;52203;51.998;5.140;2023-07-20T11:04:10;17.78;118.99
65559;DHT22;52203;51.998;5.140;2023-07-20T11:06:36;17.97;118.99
65559;DHT22;52203;51.998;5.140;2023-07-20T11:09:10;18.20;118.99
65559;DHT22;52203;51.998;5.140;2023-07-20T11:11:44;18.42;118.99
65559;DHT22;52203;51.998;5.140;2023-07-20T11:14:19;18.40;118.99
65559;DHT22;52203;51.998;5.140;2023-07-20T11:16:47;18.61;118.99
65559;DHT22;52203;51.998;5.140;2023-07-20T11:19:26;18.77;118.99
65559;DHT22;52203;51.998;5.140;2023-07-20T11:21:55;19.05;118.99
65559;DHT22;52203;51.998;5.140;2023-07-20T11:24:21;19.47;118.99
65559;DHT22;52203;51.998;5.140;2023-07-20T11:26:49;19.71;118.99
65559;DHT22;52203;51.998;5.140;2023-07-20T11:29:16;19.84;118.99
65559;DHT22;52203;51.998;5.140;2023-07-20T11:31:43;19.73;118.99
65559;DHT22;52203;51.998;5.140;2023-07-20T11:34:13;19.75;118.99
65559;DHT22;52203;51.998;5.140;2023-07-20T11:36:46;20.45;118.99
65559;DHT22;52203;51.998;5.140;2023-07-20T11:39:13;20.34;118.99
65559;DHT22;52203;51.998;5.140;2023-07-20T11:41:47;20.33;118.99
65559;DHT22;52203;51.998;5.140;2023-07-20T11:44:13;20.50;118.99
65559;DHT22;52203;51.998;5.140;2023-07-20T11:46:41;20.41;118.99
65559;DHT22;52203;51.998;5.140;2023-07-20T11:49:08;20.11;118.99
65559;DHT22;52203;51.998;5.140;2023-07-20T11:51:34;20.11;118.99
65559;DHT22;52203;51.998;5.140;2023-07-20T11:54:01;19.89;118.99
65559;DHT22;52203;51.998;5.140;2023-07-20T11:56:27;19.88;118.99
65559;DHT22;52203;51.998;5.140;2023-07-20T11:58:57;19.83;118.99
65559;DHT22;52203;51.998;5.140;2023-07-20T12:01:25;19.66;118.99
65559;DHT22;52203;51.998;5.140;2023-07-20T12:03:55;19.61;118.99
65559;DHT22;52203;51.998;5.140;2023-07-20T12:06:26;19.54;118.99
65559;DHT22;52203;51.998;5.140;2023-07-20T12:08:55;19.39;118.99
65559;DHT22;52203;51.998;5.140;2023-07-20T12:11:34;19.07;118.99
65559;DHT22;52203;51.998;5.140;2023-07-20T12:14:01;18.86;118.99
65559;DHT22;52203;51.998;5.140;2023-07-20T12:16:28;18.91;118.99
65559;DHT22;52203;51.998;5.140;2023-07-20T12:21:27;19.14;118.99
65559;DHT22;52203;51.998;5.140;2023-07-20T12:23:53;19.11;118.99
65559;DHT22;52203;51.998;5.140;2023-07-20T12:26:21;19.15;118.99
65559;DHT22;52203;51.998;5.140;2023-07-20T12:28:49;19.18;118.99
65559;DHT22;52203;51.998;5.140;2023-07-20T12:31:14;19.11;118.99
65559;DHT22;52203;51.998;5.140;2023-07-20T12:33:41;19.10;118.99
65559;DHT22;52203;51.998;5.140;2023-07-20T12:36:09;18.96;118.99
65559;DHT22;52203;51.998;5.140;2023-07-20T12:38:35;18.94;118.99
65559;DHT22;52203;51.998;5.140;2023-07-20T12:41:02;18.74;118.99
65559;DHT22;52203;51.998;5.140;2023-07-20T12:43:28;18.78;118.99
65559;DHT22;52203;51.998;5.140;2023-07-20T12:45:54;18.73;118.99
65559;DHT22;52203;51.998;5.140;2023-07-20T12:48:20;18.69;118.99
65559;DHT22;52203;51.998;5.140;2023-07-20T12:50:46;18.62;118.99
65559;DHT22;52203;51.998;5.140;2023-07-20T12:53:11;18.41;118.99
65559;DHT22;52203;51.998;5.140;2023-07-20T12:55:38;18.39;118.99
65559;DHT22;52203;51.998;5.140;2023-07-20T12:58:07;18.34;118.99
65559;DHT22;52203;51.998;5.140;2023-07-20T13:00:32;18.32;118.99
65559;DHT22;52203;51.998;5.140;2023-07-20T13:02:58;19.32;118.99
65559;DHT22;52203;51.998;5.140;2023-07-20T13:05:24;18.62;118.99
65559;DHT22;52203;51.998;5.140;2023-07-20T13:07:49;18.39;118.99
65559;DHT22;52203;51.998;5.140;2023-07-20T13:10:15;18.41;118.99
65559;DHT22;52203;51.998;5.140;2023-07-20T13:12:41;18.62;118.99
65559;DHT22;52203;51.998;5.140;2023-07-20T13:15:08;18.62;118.99
65559;DHT22;52203;51.998;5.140;2023-07-20T13:17:39;18.47;118.99
65559;DHT22;52203;51.998;5.140;2023-07-20T13:20:06;18.28;118.99
65559;DHT22;52203;51.998;5.140;2023-07-20T13:22:32;18.30;118.99
65559;DHT22;52203;51.998;5.140;2023-07-20T13:24:58;18.42;118.99
65559;DHT22;52203;51.998;5.140;2023-07-20T13:27:24;18.55;118.99
65559;DHT22;52203;51.998;5.140;2023-07-20T13:29:51;18.85;118.99
65559;DHT22;52203;51.998;5.140;2023-07-20T13:32:17;19.03;118.99
65559;DHT22;52203;51.998;5.140;2023-07-20T13:34:46;19.13;118.99
65559;DHT22;52203;51.998;5.140;2023-07-20T13:37:11;19.25;118.99
65559;DHT22;52203;51.998;5.140;2023-07-20T13:39:38;19.17;118.99
65559;DHT22;52203;51.998;5.140;2023-07-20T13:42:04;19.12;118.99
65559;DHT22;52203;51.998;5.140;2023-07-20T13:44:31;19.20;118.99
65559;DHT22;52203;51.998;5.140;2023-07-20T13:46:57;19.06;118.99
65559;DHT22;52203;51.998;5.140;2023-07-20T13:49:23;18.96;118.99
65559;DHT22;52203;51.998;5.140;2023-07-20T13:51:48;18.94;118.99
65559;DHT22;52203;51.998;5.140;2023-07-20T13:54:15;18.96;118.99
65559;DHT22;52203;51.998;5.140;2023-07-20T13:56:40;18.91;118.99
65559;DHT22;52203;51.998;5.140;2023-07-20T13:59:06;19.00;118.99
65559;DHT22;52203;51.998;5.140;2023-07-20T14:01:32;19.17;118.99
65559;DHT22;52203;51.998;5.140;2023-07-20T14:04:01;19.20;118.99
65559;DHT22;52203;51.998;5.140;2023-07-20T14:06:31;19.28;118.99
65559;DHT22;52203;51.998;5.140;2023-07-20T14:08:58;19.37;118.99
65559;DHT22;52203;51.998;5.140;2023-07-20T14:11:24;19.41;118.99
65559;DHT22;52203;51.998;5.140;2023-07-20T14:13:50;19.38;118.99
65559;DHT22;52203;51.998;5.140;2023-07-20T14:16:16;19.20;118.99
65559;DHT22;52203;51.998;5.140;2023-07-20T14:18:41;19.08;118.99
65559;DHT22;52203;51.998;5.140;2023-07-20T14:21:07;19.01;118.99
65559;DHT22;52203;51.998;5.140;2023-07-20T14:23:33;18.82;118.99
65559;DHT22;52203;51.998;5.140;2023-07-20T14:25:58;18.88;118.99
65559;DHT22;52203;51.998;5.140;2023-07-20T14:28:24;18.96;118.99
65559;DHT22;52203;51.998;5.140;2023-07-20T14:30:50;19.05;118.99
65559;DHT22;52203;51.998;5.140;2023-07-20T14:33:15;19.10;118.99
65559;DHT22;52203;51.998;5.140;2023-07-20T14:35:41;19.12;118.99
65559;DHT22;52203;51.998;5.140;2023-07-20T14:38:06;19.00;118.99
65559;DHT22;52203;51.998;5.140;2023-07-20T14:40:32;18.89;118.99
65559;DHT22;52203;51.998;5.140;2023-07-20T14:42:58;18.79;118.99
65559;DHT22;52203;51.998;5.140;2023-07-20T14:45:26;18.73;118.99
65559;DHT22;52203;51.998;5.140;2023-07-20T14:47:52;18.67;118.99
65559;DHT22;52203;51.998;5.140;2023-07-20T14:50:20;18.72;118.99
65559;DHT22;52203;51.998;5.140;2023-07-20T14:52:45;18.72;118.99
65559;DHT22;52203;51.998;5.140;2023-07-20T14:55:11;18.70;118.99
65559;DHT22;52203;51.998;5.140;2023-07-20T14:57:36;18.58;118.99
65559;DHT22;52203;51.998;5.140;2023-07-20T15:00:04;18.56;118.99
65559;DHT22;52203;51.998;5.140;2023-07-20T15:02:38;18.55;118.99
65559;DHT22;52203;51.998;5.140;2023-07-20T15:05:06;18.59;118.99
65559;DHT22;52203;51.998;5.140;2023-07-20T15:07:32;18.62;118.99
65559;DHT22;52203;51.998;5.140;2023-07-20T15:09:58;18.66;118.99
65559;DHT22;52203;51.998;5.140;2023-07-20T15:12:24;18.63;118.99
65559;DHT22;52203;51.998;5.140;2023-07-20T15:15:05;18.62;118.99
65559;DHT22;52203;51.998;5.140;2023-07-20T15:17:31;18.53;118.99
65559;DHT22;52203;51.998;5.140;2023-07-20T15:19:57;18.53;118.99
65559;DHT22;52203;51.998;5.140;2023-07-20T15:22:23;18.53;118.99
65559;DHT22;52203;51.998;5.140;2023-07-20T15:24:49;17.21;118.99
65559;DHT22;52203;51.998;5.140;2023-07-20T15:27:14;17.16;118.99
65559;DHT22;52203;51.998;5.140;2023-07-20T15:29:40;17.15;118.99
65559;DHT22;52203;51.998;5.140;2023-07-20T15:32:06;17.01;118.99
65559;DHT22;52203;51.998;5.140;2023-07-20T15:34:32;17.06;118.99
65559;DHT22;52203;51.998;5.140;2023-07-20T15:36:58;17.01;118.99
65559;DHT22;52203;51.998;5.140;2023-07-20T15:39:23;16.99;118.99